createdAt,value
2018-11-04T00:00:17.364Z,6.38
2018-11-04T00:02:47.498Z,6.41
2018-11-04T00:05:17.335Z,6.45
2018-11-04T00:07:48.026Z,6.50
2018-11-04T00:10:17.519Z,6.55
2018-11-04T00:12:47.013Z,6.62
2018-11-04T00:15:23.079Z,6.68
2018-11-04T00:17:52.459Z,6.70
2018-11-04T00:20:21.867Z,6.71
2018-11-04T00:22:51.263Z,6.75
2018-11-04T00:25:20.720Z,6.77
2018-11-04T00:27:50.138Z,6.79
2018-11-04T00:30:19.647Z,6.81
2018-11-04T00:32:49.036Z,6.85
2018-11-04T00:35:18.444Z,6.86
2018-11-04T00:37:47.883Z,6.87
2018-11-04T00:40:17.279Z,6.89
2018-11-04T00:42:46.680Z,6.92
2018-11-04T00:45:16.113Z,6.91
2018-11-04T00:47:45.476Z,6.91
2018-11-04T00:50:16.091Z,6.93
2018-11-04T00:52:45.706Z,6.96
2018-11-04T00:55:15.208Z,7.02
2018-11-04T00:57:44.600Z,7.05
2018-11-04T01:00:16.731Z,7.11
2018-11-04T01:02:47.309Z,7.15
2018-11-04T01:05:17.139Z,7.20
2018-11-04T01:07:46.552Z,7.24
2018-11-04T01:10:16.012Z,7.27
2018-11-04T01:12:46.028Z,7.29
2018-11-04T01:15:15.950Z,7.30
2018-11-04T01:17:45.778Z,7.31
2018-11-04T01:20:16.465Z,7.32
2018-11-04T01:22:46.421Z,7.35
2018-11-04T01:25:15.827Z,7.39
2018-11-04T01:27:45.236Z,7.42
2018-11-04T01:30:15.523Z,7.44
2018-11-04T01:32:45.267Z,7.46
2018-11-04T01:35:15.032Z,7.49
2018-11-04T01:37:44.453Z,7.53
2018-11-04T01:40:13.800Z,7.56
2018-11-04T01:42:43.496Z,7.61
2018-11-04T01:45:12.895Z,7.63
2018-11-04T01:47:42.363Z,7.67
2018-11-04T01:50:14.075Z,7.68
2018-11-04T01:52:43.502Z,7.72
2018-11-04T01:55:13.287Z,7.75
2018-11-04T01:57:42.719Z,7.76
2018-11-04T02:00:15.275Z,7.77
2018-11-04T02:02:45.570Z,7.80
2018-11-04T02:05:15.579Z,7.84
2018-11-04T02:07:44.981Z,7.87
2018-11-04T02:10:15.303Z,7.92
2018-11-04T02:12:44.672Z,7.96
2018-11-04T02:15:14.159Z,7.99
2018-11-04T02:17:43.619Z,8.01
2018-11-04T02:20:13.724Z,8.04
2018-11-04T02:22:43.462Z,8.06
2018-11-04T02:25:13.993Z,8.09
2018-11-04T02:27:43.950Z,8.11
2018-11-04T02:30:15.521Z,8.11
2018-11-04T02:32:45.816Z,8.14
2018-11-04T02:35:15.837Z,8.15
2018-11-04T02:37:45.237Z,8.15
2018-11-04T02:40:14.656Z,8.17
2018-11-04T02:42:44.064Z,8.19
2018-11-04T02:45:13.458Z,8.19
2018-11-04T02:47:42.888Z,8.21
2018-11-04T02:50:12.320Z,8.22
2018-11-04T02:52:41.728Z,8.21
2018-11-04T02:55:11.199Z,8.21
2018-11-04T02:57:40.580Z,8.23
2018-11-04T03:00:13.078Z,8.24
2018-11-04T03:02:43.125Z,8.25
2018-11-04T03:05:12.657Z,8.25
2018-11-04T03:07:42.808Z,8.27
2018-11-04T03:10:13.688Z,8.31
2018-11-04T03:12:43.122Z,8.33
2018-11-04T03:15:12.600Z,8.35
2018-11-04T03:17:42.056Z,8.38
2018-11-04T03:20:11.491Z,8.37
2018-11-04T03:22:40.921Z,8.39
2018-11-04T03:25:10.354Z,8.41
2018-11-04T03:27:39.924Z,8.44
2018-11-04T03:30:10.150Z,8.45
2018-11-04T03:32:39.655Z,8.47
2018-11-04T03:35:09.116Z,8.48
2018-11-04T03:37:38.523Z,8.50
2018-11-04T03:40:10.201Z,8.49
2018-11-04T03:42:39.589Z,8.50
2018-11-04T03:45:09.661Z,8.48
2018-11-04T03:47:39.400Z,8.48
2018-11-04T03:50:10.736Z,8.47
2018-11-04T03:52:40.221Z,8.47
2018-11-04T03:55:09.704Z,8.46
2018-11-04T03:57:39.154Z,8.47
2018-11-04T04:00:12.536Z,8.48
2018-11-04T04:02:43.136Z,8.48
2018-11-04T04:05:12.581Z,8.51
2018-11-04T04:07:41.993Z,8.51
2018-11-04T04:10:11.419Z,8.52
2018-11-04T04:12:40.821Z,8.51
2018-11-04T04:15:11.376Z,8.51
2018-11-04T04:17:41.024Z,8.51
2018-11-04T04:20:10.409Z,8.51
2018-11-04T04:22:39.871Z,8.52
2018-11-04T04:25:09.398Z,8.56
2018-11-04T04:27:38.861Z,8.58
2018-11-04T04:30:10.677Z,8.60
2018-11-04T04:32:40.060Z,8.62
2018-11-04T04:35:10.186Z,8.63
2018-11-04T04:37:40.097Z,8.62
2018-11-04T04:40:09.753Z,8.66
2018-11-04T04:42:39.169Z,8.66
2018-11-04T04:45:08.598Z,8.67
2018-11-04T04:47:37.972Z,8.68
2018-11-04T04:50:07.423Z,8.67
2018-11-04T04:52:36.920Z,8.69
2018-11-04T04:55:06.500Z,8.71
2018-11-04T04:57:36.076Z,8.71
2018-11-04T05:00:06.744Z,8.71
2018-11-04T05:02:36.219Z,8.72
2018-11-04T05:05:05.943Z,8.72
2018-11-04T05:07:35.695Z,8.73
2018-11-04T05:10:05.668Z,8.71
2018-11-04T05:12:35.061Z,8.73
2018-11-04T05:15:04.925Z,8.74
2018-11-04T05:17:34.306Z,8.75
2018-11-04T05:20:03.708Z,8.75
2018-11-04T05:22:33.108Z,8.74
2018-11-04T05:25:02.521Z,8.74
2018-11-04T05:27:31.919Z,8.75
2018-11-04T05:30:01.554Z,8.74
2018-11-04T05:32:30.976Z,8.73
2018-11-04T05:35:00.360Z,8.73
2018-11-04T05:37:29.964Z,8.75
2018-11-04T05:39:59.429Z,8.76
2018-11-04T05:42:28.869Z,8.77
2018-11-04T05:44:58.264Z,8.78
2018-11-04T05:47:27.641Z,8.80
2018-11-04T05:49:57.028Z,8.82
2018-11-04T05:52:26.452Z,8.84
2018-11-04T05:54:55.864Z,8.87
2018-11-04T05:57:25.373Z,8.88
2018-11-04T05:59:54.820Z,8.89
2018-11-04T06:02:24.305Z,8.89
2018-11-04T06:04:53.702Z,8.90
2018-11-04T06:07:23.280Z,8.91
2018-11-04T06:09:52.680Z,8.91
2018-11-04T06:12:22.164Z,8.92
2018-11-04T06:14:51.564Z,8.95
2018-11-04T06:17:20.968Z,8.97
2018-11-04T06:19:50.384Z,8.98
2018-11-04T06:22:19.835Z,9.00
2018-11-04T06:24:49.456Z,9.01
2018-11-04T06:27:18.919Z,9.02
2018-11-04T06:29:48.449Z,9.04
2018-11-04T06:32:17.903Z,9.06
2018-11-04T06:34:47.399Z,9.06
2018-11-04T06:37:16.689Z,9.07
2018-11-04T06:39:52.837Z,9.07
2018-11-04T06:42:22.424Z,9.07
2018-11-04T06:44:51.827Z,9.07
2018-11-04T06:47:21.296Z,9.08
2018-11-04T06:49:50.716Z,9.09
2018-11-04T06:52:20.137Z,9.13
2018-11-04T06:54:49.552Z,9.16
2018-11-04T06:57:19.150Z,9.17
2018-11-04T06:59:48.576Z,9.18
2018-11-04T07:02:17.972Z,9.20
2018-11-04T07:04:47.403Z,9.21
2018-11-04T07:07:16.874Z,9.24
2018-11-04T07:09:46.253Z,9.28
2018-11-04T07:12:15.673Z,9.30
2018-11-04T07:14:45.133Z,9.32
2018-11-04T07:17:14.565Z,9.36
2018-11-04T07:19:44.032Z,9.39
2018-11-04T07:22:13.432Z,9.44
2018-11-04T07:24:42.830Z,9.46
2018-11-04T07:27:12.263Z,9.49
2018-11-04T07:29:41.696Z,9.50
2018-11-04T07:32:11.327Z,9.53
2018-11-04T07:34:40.816Z,9.57
2018-11-04T07:37:10.209Z,9.62
2018-11-04T07:39:39.613Z,9.68
2018-11-04T07:42:09.032Z,9.75
2018-11-04T07:44:38.426Z,9.77
2018-11-04T07:47:07.833Z,9.79
2018-11-04T07:49:37.439Z,9.79
2018-11-04T07:52:06.912Z,9.81
2018-11-04T07:54:36.394Z,9.83
2018-11-04T07:57:06.035Z,9.83
2018-11-04T07:59:35.350Z,9.85
2018-11-04T08:02:04.783Z,9.90
2018-11-04T08:04:34.257Z,9.93
2018-11-04T08:07:03.658Z,9.95
2018-11-04T08:09:33.061Z,9.97
2018-11-04T08:12:02.469Z,9.99
2018-11-04T08:14:31.950Z,10.03
2018-11-04T08:17:01.424Z,10.04
2018-11-04T08:19:30.852Z,10.06
2018-11-04T08:22:00.289Z,10.10
2018-11-04T08:24:29.706Z,10.12
2018-11-04T08:26:59.399Z,10.15
2018-11-04T08:29:28.825Z,10.19
2018-11-04T08:31:58.208Z,10.22
2018-11-04T08:34:27.697Z,10.24
2018-11-04T08:36:57.118Z,10.29
2018-11-04T08:39:26.559Z,10.34
2018-11-04T08:41:56.029Z,10.40
2018-11-04T08:44:26.041Z,10.46
2018-11-04T08:46:55.761Z,10.51
2018-11-04T08:49:25.671Z,10.54
2018-11-04T08:51:56.098Z,10.54
2018-11-04T08:54:25.984Z,10.54
2018-11-04T08:56:55.862Z,10.54
2018-11-04T08:59:25.713Z,10.57
2018-11-04T09:01:56.016Z,10.60
2018-11-04T09:04:25.537Z,10.64
2018-11-04T09:06:54.963Z,10.69
2018-11-04T09:09:24.412Z,10.76
2018-11-04T09:11:53.822Z,10.79
2018-11-04T09:14:23.241Z,10.80
2018-11-04T09:16:52.658Z,10.81
2018-11-04T09:19:22.185Z,10.86
2018-11-04T09:21:51.778Z,10.89
2018-11-04T09:24:21.056Z,10.91
2018-11-04T09:26:50.549Z,10.93
2018-11-04T09:29:19.988Z,10.93
2018-11-04T09:31:49.401Z,10.93
2018-11-04T09:34:18.905Z,10.94
2018-11-04T09:36:48.360Z,10.95
2018-11-04T09:39:17.917Z,10.97
2018-11-04T09:41:47.325Z,10.95
2018-11-04T09:44:16.720Z,10.95
2018-11-04T09:46:46.172Z,10.98
2018-11-04T09:49:15.582Z,10.97
2018-11-04T09:51:45.032Z,11.01
2018-11-04T09:54:14.791Z,11.07
2018-11-04T09:56:44.267Z,11.10
2018-11-04T09:59:13.632Z,11.13
2018-11-04T10:01:43.057Z,11.15
2018-11-04T10:04:12.544Z,11.12
2018-11-04T10:06:41.925Z,11.13
2018-11-04T10:09:12.896Z,11.12
2018-11-04T10:11:42.305Z,11.11
2018-11-04T10:14:12.270Z,11.12
2018-11-04T10:16:41.711Z,11.16
2018-11-04T10:19:11.289Z,11.17
2018-11-04T10:21:40.726Z,11.17
2018-11-04T10:24:10.145Z,11.18
2018-11-04T10:26:39.613Z,11.18
2018-11-04T10:29:09.188Z,11.21
2018-11-04T10:31:38.666Z,11.21
2018-11-04T10:34:08.467Z,11.26
2018-11-04T10:36:37.892Z,11.28
2018-11-04T10:39:09.775Z,11.27
2018-11-04T10:41:39.208Z,11.31
2018-11-04T10:44:08.951Z,11.35
2018-11-04T10:46:38.594Z,11.39
2018-11-04T10:49:08.330Z,11.43
2018-11-04T10:51:38.445Z,11.45
2018-11-04T10:54:07.889Z,11.45
2018-11-04T10:56:37.369Z,11.46
2018-11-04T10:59:07.084Z,11.46
2018-11-04T11:01:36.527Z,11.49
2018-11-04T11:04:05.970Z,11.54
2018-11-04T11:06:35.374Z,11.56
2018-11-04T11:09:10.256Z,11.55
2018-11-04T11:11:40.667Z,11.51
2018-11-04T11:14:10.100Z,11.51
2018-11-04T11:16:39.499Z,11.49
2018-11-04T11:19:08.934Z,11.54
2018-11-04T11:21:38.360Z,11.55
2018-11-04T11:24:07.924Z,11.56
2018-11-04T11:26:37.408Z,11.56
2018-11-04T11:29:06.803Z,11.58
2018-11-04T11:31:36.408Z,11.55
2018-11-04T11:34:05.963Z,11.52
2018-11-04T11:36:35.412Z,11.49
2018-11-04T11:39:08.520Z,11.51
2018-11-04T11:41:37.976Z,11.52
2018-11-04T11:44:07.391Z,11.54
2018-11-04T11:46:36.816Z,11.56
2018-11-04T11:49:06.268Z,11.55
2018-11-04T11:51:35.697Z,11.57
2018-11-04T11:54:05.311Z,11.64
2018-11-04T11:56:34.785Z,11.66
2018-11-04T11:59:04.186Z,11.66
2018-11-04T12:01:33.620Z,11.68
2018-11-04T12:04:03.104Z,11.70
2018-11-04T12:06:32.566Z,11.74
2018-11-04T12:09:02.350Z,11.73
2018-11-04T12:11:31.744Z,11.73
2018-11-04T12:14:01.184Z,11.73
2018-11-04T12:16:30.645Z,11.73
2018-11-04T12:19:00.053Z,11.74
2018-11-04T12:21:29.493Z,11.77
2018-11-04T12:23:58.927Z,11.75
2018-11-04T12:26:28.360Z,11.74
2018-11-04T12:28:58.327Z,11.73
2018-11-04T12:31:28.297Z,11.75
2018-11-04T12:33:57.683Z,11.79
2018-11-04T12:36:27.195Z,11.86
2018-11-04T12:38:56.676Z,11.86
2018-11-04T12:41:26.116Z,11.89
2018-11-04T12:43:55.658Z,11.92
2018-11-04T12:46:25.122Z,11.93
2018-11-04T12:48:54.604Z,11.97
2018-11-04T12:51:24.039Z,11.98
2018-11-04T12:53:53.574Z,11.97
2018-11-04T12:56:22.964Z,11.93
2018-11-04T12:58:52.553Z,11.94
2018-11-04T13:01:22.079Z,11.88
2018-11-04T13:03:51.508Z,11.81
2018-11-04T13:06:20.991Z,11.75
2018-11-04T13:08:50.605Z,11.69
2018-11-04T13:11:20.051Z,11.62
2018-11-04T13:13:50.168Z,11.59
2018-11-04T13:16:19.781Z,11.56
2018-11-04T13:18:49.321Z,11.54
2018-11-04T13:21:19.131Z,11.50
2018-11-04T13:23:48.590Z,11.46
2018-11-04T13:26:18.092Z,11.47
2018-11-04T13:28:47.579Z,11.46
2018-11-04T13:31:17.161Z,11.46
2018-11-04T13:33:46.726Z,11.46
2018-11-04T13:36:16.965Z,11.46
2018-11-04T13:38:46.968Z,11.48
2018-11-04T13:41:16.528Z,11.46
2018-11-04T13:43:45.944Z,11.44
2018-11-04T13:46:15.609Z,11.42
2018-11-04T13:48:45.033Z,11.43
2018-11-04T13:51:14.480Z,11.45
2018-11-04T13:53:44.044Z,11.46
2018-11-04T13:56:13.560Z,11.45
2018-11-04T13:58:43.125Z,11.43
2018-11-04T14:01:12.772Z,11.39
2018-11-04T14:03:42.342Z,11.37
2018-11-04T14:06:11.918Z,11.35
2018-11-04T14:08:41.591Z,11.33
2018-11-04T14:11:11.198Z,11.30
2018-11-04T14:13:40.733Z,11.29
2018-11-04T14:16:10.540Z,11.25
2018-11-04T14:18:39.997Z,11.23
2018-11-04T14:21:09.524Z,11.23
2018-11-04T14:23:39.051Z,11.22
2018-11-04T14:26:08.755Z,11.22
2018-11-04T14:28:38.246Z,11.19
2018-11-04T14:31:07.753Z,11.16
2018-11-04T14:33:37.164Z,11.14
2018-11-04T14:36:06.824Z,11.13
2018-11-04T14:38:36.306Z,11.14
2018-11-04T14:41:06.451Z,11.16
2018-11-04T14:43:35.993Z,11.16
2018-11-04T14:46:06.005Z,11.17
2018-11-04T14:48:35.618Z,11.17
2018-11-04T14:51:05.216Z,11.18
2018-11-04T14:53:34.892Z,11.19
2018-11-04T14:56:05.051Z,11.20
2018-11-04T14:58:34.770Z,11.21
2018-11-04T15:01:04.469Z,11.19
2018-11-04T15:03:34.024Z,11.16
2018-11-04T15:06:04.318Z,11.14
2018-11-04T15:08:36.004Z,11.10
2018-11-04T15:11:05.461Z,11.06
2018-11-04T15:13:34.887Z,11.02
2018-11-04T15:16:04.480Z,11.00
2018-11-04T15:18:34.085Z,11.00
2018-11-04T15:21:03.533Z,10.97
2018-11-04T15:23:32.972Z,10.96
2018-11-04T15:26:02.420Z,10.94
2018-11-04T15:28:31.804Z,10.92
2018-11-04T15:31:01.309Z,10.91
2018-11-04T15:33:30.732Z,10.91
2018-11-04T15:36:00.234Z,10.90
2018-11-04T15:38:29.705Z,10.91
2018-11-04T15:40:59.678Z,10.92
2018-11-04T15:43:29.387Z,10.94
2018-11-04T15:45:58.924Z,10.95
2018-11-04T15:48:28.356Z,10.97
2018-11-04T15:50:57.803Z,10.98
2018-11-04T15:53:27.255Z,10.98
2018-11-04T15:55:56.744Z,10.97
2018-11-04T15:58:26.140Z,10.97
2018-11-04T16:00:55.696Z,10.95
2018-11-04T16:03:25.153Z,10.95
2018-11-04T16:05:54.747Z,10.95
2018-11-04T16:08:24.119Z,10.95
2018-11-04T16:10:53.587Z,10.94
2018-11-04T16:13:22.976Z,10.92
2018-11-04T16:15:52.475Z,10.92
2018-11-04T16:18:22.066Z,10.92
2018-11-04T16:20:51.430Z,10.93
2018-11-04T16:23:20.881Z,10.94
2018-11-04T16:25:50.324Z,10.92
2018-11-04T16:28:19.810Z,10.93
2018-11-04T16:30:49.251Z,10.94
2018-11-04T16:33:18.830Z,10.94
2018-11-04T16:35:48.267Z,10.93
2018-11-04T16:38:17.787Z,10.93
2018-11-04T16:40:47.270Z,10.93
2018-11-04T16:43:16.812Z,10.93
2018-11-04T16:45:46.917Z,10.92
2018-11-04T16:48:17.096Z,10.96
2018-11-04T16:50:46.716Z,10.98
2018-11-04T16:53:16.343Z,10.99
2018-11-04T16:55:46.423Z,11.00
2018-11-04T16:58:16.858Z,11.01
2018-11-04T17:00:50.501Z,11.01
2018-11-04T17:03:20.008Z,11.04
2018-11-04T17:05:50.113Z,11.04
2018-11-04T17:08:19.457Z,11.06
2018-11-04T17:10:50.096Z,11.05
2018-11-04T17:13:19.615Z,11.05
2018-11-04T17:15:49.039Z,11.09
2018-11-04T17:18:18.662Z,11.09
2018-11-04T17:20:47.973Z,11.09
2018-11-04T17:23:17.461Z,11.08
2018-11-04T17:25:46.848Z,11.07
2018-11-04T17:28:16.384Z,11.07
2018-11-04T17:30:45.812Z,11.07
2018-11-04T17:33:15.248Z,11.08
2018-11-04T17:35:45.070Z,11.08
2018-11-04T17:38:14.414Z,11.09
2018-11-04T17:40:43.809Z,11.09
2018-11-04T17:43:13.289Z,11.09
2018-11-04T17:45:42.704Z,11.09
2018-11-04T17:48:12.127Z,11.09
2018-11-04T17:50:41.684Z,11.11
2018-11-04T17:53:11.104Z,11.12
2018-11-04T17:55:40.567Z,11.10
2018-11-04T17:58:10.134Z,11.10
2018-11-04T18:00:39.549Z,11.09
2018-11-04T18:03:09.033Z,11.08
2018-11-04T18:05:38.432Z,11.10
2018-11-04T18:08:07.888Z,11.11
2018-11-04T18:10:37.481Z,11.12
2018-11-04T18:13:07.152Z,11.12
2018-11-04T18:15:36.684Z,11.13
2018-11-04T18:18:06.372Z,11.12
2018-11-04T18:20:36.523Z,11.13
2018-11-04T18:23:06.072Z,11.13
2018-11-04T18:25:35.533Z,11.13
2018-11-04T18:28:05.145Z,11.13
2018-11-04T18:30:34.619Z,11.11
2018-11-04T18:33:04.156Z,11.14
2018-11-04T18:35:33.730Z,11.14
2018-11-04T18:38:03.373Z,11.14
2018-11-04T18:40:36.916Z,11.12
2018-11-04T18:43:07.092Z,11.11
2018-11-04T18:45:36.636Z,11.12
2018-11-04T18:48:06.264Z,11.13
2018-11-04T18:50:35.857Z,11.13
2018-11-04T18:53:05.256Z,11.13
2018-11-04T18:55:34.809Z,11.11
2018-11-04T18:58:04.239Z,11.10
2018-11-04T19:00:33.675Z,11.10
2018-11-04T19:03:03.365Z,11.12
2018-11-04T19:05:32.923Z,11.12
2018-11-04T19:08:02.584Z,11.12
2018-11-04T19:10:32.207Z,11.11
2018-11-04T19:13:01.678Z,11.12
2018-11-04T19:15:31.088Z,11.10
2018-11-04T19:18:00.843Z,11.11
2018-11-04T19:20:30.318Z,11.12
2018-11-04T19:22:59.888Z,11.13
2018-11-04T19:25:29.464Z,11.14
2018-11-04T19:27:59.033Z,11.13
2018-11-04T19:30:28.607Z,11.13
2018-11-04T19:32:58.317Z,11.13
2018-11-04T19:35:28.312Z,11.11
2018-11-04T19:37:58.137Z,11.12
2018-11-04T19:40:27.728Z,11.11
2018-11-04T19:42:57.285Z,11.11
2018-11-04T19:45:26.748Z,11.10
2018-11-04T19:47:56.237Z,11.08
2018-11-04T19:50:27.205Z,11.07
2018-11-04T19:52:56.895Z,11.09
2018-11-04T19:55:26.516Z,11.10
2018-11-04T19:57:56.111Z,11.12
2018-11-04T20:00:25.497Z,11.13
2018-11-04T20:02:54.959Z,11.14
2018-11-04T20:05:24.463Z,11.16
2018-11-04T20:07:53.825Z,11.16
2018-11-04T20:10:23.365Z,11.16
2018-11-04T20:13:57.732Z,11.16
2018-11-04T20:16:27.175Z,11.13
2018-11-04T20:19:01.794Z,11.11
2018-11-04T20:21:31.267Z,11.10
2018-11-04T20:24:04.810Z,11.08
2018-11-04T20:26:34.281Z,11.07
2018-11-04T20:29:03.872Z,11.07
2018-11-04T20:31:38.837Z,11.06
2018-11-04T20:34:08.342Z,11.08
2018-11-04T20:36:37.992Z,11.07
2018-11-04T20:39:14.551Z,11.05
2018-11-04T20:41:44.289Z,11.06
2018-11-04T20:44:13.749Z,11.09
2018-11-04T20:46:43.458Z,11.10
2018-11-04T20:49:18.289Z,11.13
2018-11-04T20:51:48.184Z,11.15
2018-11-04T20:54:17.404Z,11.16
2018-11-04T20:56:51.908Z,11.16
2018-11-04T20:59:21.465Z,11.17
2018-11-04T21:01:51.340Z,11.18
2018-11-04T21:04:21.183Z,11.17
2018-11-04T21:06:50.742Z,11.20
2018-11-04T21:09:20.225Z,11.20
2018-11-04T21:11:50.013Z,11.21
2018-11-04T21:14:19.496Z,11.20
2018-11-04T21:16:49.047Z,11.22
2018-11-04T21:19:18.448Z,11.22
2018-11-04T21:21:48.134Z,11.24
2018-11-04T21:24:17.676Z,11.25
2018-11-04T21:26:47.189Z,11.25
2018-11-04T21:29:16.862Z,11.24
2018-11-04T21:31:46.240Z,11.23
2018-11-04T21:34:15.772Z,11.24
2018-11-04T21:36:45.517Z,11.25
2018-11-04T21:39:15.525Z,11.27
2018-11-04T21:41:45.733Z,11.26
2018-11-04T21:44:15.347Z,11.25
2018-11-04T21:46:44.774Z,11.23
2018-11-04T21:49:14.709Z,11.22
2018-11-04T21:51:44.258Z,11.22
2018-11-04T21:54:13.784Z,11.21
2018-11-04T21:56:43.426Z,11.20
2018-11-04T21:59:12.949Z,11.20
2018-11-04T22:01:42.679Z,11.19
2018-11-04T22:04:12.685Z,11.18
2018-11-04T22:06:42.787Z,11.17
2018-11-04T22:09:12.220Z,11.19
2018-11-04T22:11:41.786Z,11.20
2018-11-04T22:14:11.236Z,11.19
2018-11-04T22:16:40.713Z,11.20
2018-11-04T22:19:10.348Z,11.21
2018-11-04T22:21:39.870Z,11.20
2018-11-04T22:24:09.285Z,11.20
2018-11-04T22:26:38.761Z,11.19
2018-11-04T22:29:08.169Z,11.19
2018-11-04T22:31:37.704Z,11.18
2018-11-04T22:34:08.393Z,11.20
2018-11-04T22:36:37.886Z,11.19
2018-11-04T22:39:08.946Z,11.17
2018-11-04T22:41:38.376Z,11.17
2018-11-04T22:44:07.913Z,11.15
2018-11-04T22:46:37.495Z,11.14
2018-11-04T22:49:07.133Z,11.15
2018-11-04T22:51:36.629Z,11.16
2018-11-04T22:54:06.546Z,11.16
2018-11-04T22:56:36.217Z,11.15
2018-11-04T22:59:06.267Z,11.15
2018-11-04T23:01:35.774Z,11.16
2018-11-04T23:04:05.233Z,11.16
2018-11-04T23:06:34.586Z,11.16
2018-11-04T23:09:04.705Z,11.16
2018-11-04T23:11:34.176Z,11.16
2018-11-04T23:14:03.631Z,11.16
2018-11-04T23:16:33.112Z,11.16
2018-11-04T23:19:02.847Z,11.16
2018-11-04T23:21:32.359Z,11.16
2018-11-04T23:24:01.804Z,11.16
2018-11-04T23:26:31.306Z,11.17
2018-11-04T23:29:00.768Z,11.17
2018-11-04T23:31:30.176Z,11.19
2018-11-04T23:33:59.728Z,11.20
2018-11-04T23:36:29.169Z,11.19
2018-11-04T23:38:58.564Z,11.20
2018-11-04T23:41:28.116Z,11.19
2018-11-04T23:43:57.507Z,11.20
2018-11-04T23:46:27.293Z,11.20
2018-11-04T23:48:57.460Z,11.20
2018-11-04T23:51:27.175Z,11.21
2018-11-04T23:53:56.929Z,11.21
2018-11-04T23:56:26.337Z,11.23
2018-11-04T23:58:56.566Z,11.24
